createdAt,value
2019-05-23T00:02:24.306Z,2.67
2019-05-23T00:04:55.700Z,2.47
2019-05-23T00:07:27.029Z,2.60
2019-05-23T00:09:59.533Z,3.50
2019-05-23T00:12:35.604Z,2.93
2019-05-23T00:15:12.732Z,3.13
2019-05-23T00:17:43.489Z,3.67
2019-05-23T00:20:13.296Z,3.90
2019-05-23T00:22:44.632Z,3.60
2019-05-23T00:25:16.222Z,3.80
2019-05-23T00:27:47.435Z,3.83
2019-05-23T00:30:19.086Z,3.60
2019-05-23T00:32:51.086Z,4.30
2019-05-23T00:35:20.953Z,4.40
2019-05-23T00:37:51.301Z,4.40
2019-05-23T00:40:21.594Z,7.37
2019-05-23T00:42:51.836Z,6.73
2019-05-23T00:45:23.249Z,7.67
2019-05-23T00:47:56.443Z,7.43
2019-05-23T00:50:26.487Z,8.20
2019-05-23T00:52:56.747Z,7.90
2019-05-23T00:55:28.525Z,7.70
2019-05-23T00:57:59.546Z,8.80
2019-05-23T01:00:30.189Z,9.00
2019-05-23T01:03:00.047Z,8.43
2019-05-23T01:05:31.253Z,8.20
2019-05-23T01:08:01.760Z,8.53
2019-05-23T01:10:32.245Z,9.27
2019-05-23T01:13:02.983Z,8.87
2019-05-23T01:15:34.292Z,9.10
2019-05-23T01:18:05.166Z,10.67
2019-05-23T01:20:36.539Z,9.80
2019-05-23T01:23:07.139Z,10.53
2019-05-23T01:25:36.995Z,10.60
2019-05-23T01:28:08.358Z,10.00
2019-05-23T01:30:51.966Z,10.33
2019-05-23T01:33:21.689Z,11.60
2019-05-23T01:35:51.816Z,10.90
2019-05-23T01:38:22.870Z,10.80
2019-05-23T01:40:53.082Z,11.13
2019-05-23T01:43:25.583Z,10.63
2019-05-23T01:45:55.815Z,10.20
2019-05-23T01:48:32.096Z,10.87
2019-05-23T01:51:02.418Z,10.60
2019-05-23T01:53:32.624Z,10.23
2019-05-23T01:56:02.549Z,11.07
2019-05-23T01:58:32.711Z,10.50
2019-05-23T02:01:04.644Z,10.77
2019-05-23T02:03:35.945Z,10.73
2019-05-23T02:06:06.548Z,10.33
2019-05-23T02:08:36.617Z,10.13
2019-05-23T02:11:07.264Z,10.77
2019-05-23T02:13:37.770Z,10.37
2019-05-23T02:16:07.450Z,9.83
2019-05-23T02:18:37.155Z,10.63
2019-05-23T02:21:07.752Z,11.53
2019-05-23T02:23:37.814Z,11.10
2019-05-23T02:26:09.303Z,10.80
2019-05-23T02:28:39.713Z,10.13
2019-05-23T02:31:11.989Z,10.60
2019-05-23T02:33:43.626Z,10.03
2019-05-23T02:36:13.734Z,10.13
2019-05-23T02:38:55.034Z,10.57
2019-05-23T02:41:35.492Z,9.90
2019-05-23T02:44:16.529Z,9.43
2019-05-23T02:47:01.961Z,9.97
2019-05-23T02:49:34.090Z,9.83
2019-05-23T02:52:20.429Z,9.87
2019-05-23T02:54:52.573Z,10.00
2019-05-23T02:57:25.433Z,10.03
2019-05-23T02:59:58.241Z,10.37
2019-05-23T03:02:43.809Z,11.07
2019-05-23T03:05:16.741Z,12.10
2019-05-23T03:07:46.560Z,11.77
2019-05-23T03:10:19.027Z,11.90
2019-05-23T03:12:49.591Z,12.00
2019-05-23T03:15:19.554Z,12.80
2019-05-23T03:17:52.785Z,13.83
2019-05-23T03:20:24.082Z,15.57
2019-05-23T03:23:06.194Z,15.87
2019-05-23T03:25:39.711Z,15.73
2019-05-23T03:28:12.667Z,15.93
2019-05-23T03:30:45.107Z,15.73
2019-05-23T03:33:15.807Z,16.73
2019-05-23T03:35:53.448Z,16.67
2019-05-23T03:38:23.892Z,17.33
2019-05-23T03:40:54.707Z,15.40
2019-05-23T03:43:24.456Z,17.23
2019-05-23T03:45:58.350Z,16.33
2019-05-23T03:48:29.612Z,15.97
2019-05-23T03:51:01.087Z,17.27
2019-05-23T03:53:32.105Z,17.63
2019-05-23T03:56:02.079Z,18.97
2019-05-23T03:58:33.415Z,18.63
2019-05-23T04:01:06.758Z,17.03
2019-05-23T04:03:39.994Z,19.50
2019-05-23T04:06:09.529Z,20.40
2019-05-23T04:08:39.299Z,19.97
2019-05-23T04:11:09.147Z,20.70
2019-05-23T04:13:38.898Z,20.30
2019-05-23T04:16:09.185Z,20.03
2019-05-23T04:18:39.051Z,18.57
2019-05-23T04:21:09.395Z,18.57
2019-05-23T04:23:39.930Z,18.87
2019-05-23T04:26:09.844Z,18.07
2019-05-23T04:28:39.572Z,17.60
2019-05-23T04:31:13.002Z,18.17
2019-05-23T04:33:41.494Z,17.40
2019-05-23T04:36:11.821Z,16.27
2019-05-23T04:38:41.631Z,16.23
2019-05-23T04:41:11.952Z,15.30
2019-05-23T04:43:41.690Z,16.60
2019-05-23T04:46:11.687Z,15.97
2019-05-23T04:48:41.515Z,14.83
2019-05-23T04:51:11.895Z,14.00
2019-05-23T04:53:41.870Z,14.43
2019-05-23T04:56:11.645Z,13.87
2019-05-23T04:58:41.435Z,15.00
2019-05-23T05:01:12.736Z,14.93
2019-05-23T05:03:44.886Z,14.43
2019-05-23T05:06:14.921Z,13.43
2019-05-23T05:08:44.645Z,13.30
2019-05-23T05:11:14.882Z,13.53
2019-05-23T05:13:44.748Z,13.30
2019-05-23T05:16:14.464Z,13.60
2019-05-23T05:18:44.530Z,12.87
2019-05-23T05:21:14.520Z,12.57
2019-05-23T05:23:44.223Z,12.77
2019-05-23T05:26:17.005Z,12.50
2019-05-23T05:28:47.165Z,11.73
2019-05-23T05:31:16.871Z,11.10
2019-05-23T05:33:46.802Z,11.30
2019-05-23T05:36:16.534Z,11.33
2019-05-23T05:38:46.361Z,11.10
2019-05-23T05:41:16.050Z,11.17
2019-05-23T05:43:46.325Z,10.97
2019-05-23T05:46:16.095Z,9.40
2019-05-23T05:48:46.221Z,9.20
2019-05-23T05:51:16.097Z,9.40
2019-05-23T05:53:46.769Z,8.83
2019-05-23T05:56:16.623Z,8.53
2019-05-23T05:58:46.457Z,7.93
2019-05-23T06:01:32.785Z,7.50
2019-05-23T06:03:50.009Z,7.70
2019-05-23T06:06:21.521Z,7.23
2019-05-23T06:08:53.636Z,7.70
2019-05-23T06:11:23.387Z,7.10
2019-05-23T06:13:54.425Z,7.10
2019-05-23T06:16:24.256Z,6.13
2019-05-23T06:18:54.591Z,5.50
2019-05-23T06:21:25.995Z,4.97
2019-05-23T06:23:56.064Z,4.43
2019-05-23T06:26:25.819Z,4.40
2019-05-23T06:28:55.574Z,5.40
2019-05-23T06:31:26.070Z,4.63
2019-05-23T06:33:55.740Z,5.20
2019-05-23T06:36:26.080Z,4.57
2019-05-23T06:38:57.804Z,5.13
2019-05-23T06:41:27.814Z,5.53
2019-05-23T06:43:57.731Z,5.43
2019-05-23T06:46:28.302Z,4.50
2019-05-23T06:48:58.075Z,4.60
2019-05-23T06:51:28.288Z,4.33
2019-05-23T06:53:59.067Z,4.40
2019-05-23T06:56:29.202Z,4.30
2019-05-23T06:58:59.020Z,4.10
2019-05-23T07:01:28.926Z,4.17
2019-05-23T07:03:59.146Z,4.03
2019-05-23T07:06:29.683Z,4.27
2019-05-23T07:08:59.418Z,4.07
2019-05-23T07:11:29.198Z,4.50
2019-05-23T07:13:59.109Z,3.97
2019-05-23T07:16:28.951Z,3.63
2019-05-23T07:18:58.937Z,3.43
2019-05-23T07:21:30.491Z,4.00
2019-05-23T07:24:02.170Z,4.00
2019-05-23T07:26:32.590Z,3.60
2019-05-23T07:29:04.051Z,3.53
2019-05-23T07:31:35.601Z,3.33
2019-05-23T07:34:05.838Z,3.27
2019-05-23T07:36:36.844Z,3.97
2019-05-23T07:39:11.588Z,3.20
2019-05-23T07:41:41.641Z,3.03
2019-05-23T07:44:11.886Z,2.90
2019-05-23T07:46:42.508Z,2.60
2019-05-23T07:49:12.821Z,2.67
2019-05-23T07:51:43.247Z,2.67
2019-05-23T07:54:15.026Z,2.50
2019-05-23T07:56:45.278Z,2.70
2019-05-23T07:59:15.035Z,2.57
2019-05-23T08:01:47.842Z,1.90
2019-05-23T08:04:21.911Z,2.00
2019-05-23T08:06:49.359Z,1.80
2019-05-23T08:09:19.945Z,2.00
2019-05-23T08:11:49.995Z,2.00
2019-05-23T08:14:19.991Z,2.37
2019-05-23T08:16:51.025Z,2.80
2019-05-23T08:19:20.956Z,2.87
2019-05-23T08:21:50.722Z,2.70
2019-05-23T08:24:20.585Z,2.60
2019-05-23T08:26:50.970Z,2.47
2019-05-23T08:29:26.336Z,3.30
2019-05-23T08:31:52.587Z,3.47
2019-05-23T08:34:39.953Z,2.90
2019-05-23T08:36:54.443Z,3.30
2019-05-23T08:39:25.316Z,2.67
2019-05-23T08:41:55.239Z,2.80
2019-05-23T08:44:25.532Z,3.00
2019-05-23T08:46:55.639Z,2.63
2019-05-23T08:49:25.884Z,3.13
2019-05-23T08:51:56.072Z,2.90
2019-05-23T08:54:25.862Z,2.40
2019-05-23T08:56:55.666Z,2.83
2019-05-23T08:59:25.658Z,2.40
2019-05-23T09:01:55.668Z,2.70
2019-05-23T09:04:25.415Z,2.30
2019-05-23T09:06:55.668Z,2.40
2019-05-23T09:09:30.431Z,3.00
2019-05-23T09:11:57.908Z,3.00
2019-05-23T09:14:28.218Z,2.37
2019-05-23T09:16:58.123Z,2.70
2019-05-23T09:19:28.039Z,2.60
2019-05-23T09:21:58.391Z,2.30
2019-05-23T09:24:28.137Z,2.13
2019-05-23T09:26:57.915Z,2.30
2019-05-23T09:29:27.643Z,1.90
2019-05-23T09:31:57.821Z,1.90
2019-05-23T09:34:27.896Z,2.00
2019-05-23T09:37:00.385Z,2.30
2019-05-23T09:39:31.031Z,2.10
2019-05-23T09:42:00.703Z,2.40
2019-05-23T09:44:30.450Z,2.30
2019-05-23T09:47:00.160Z,2.30
2019-05-23T09:49:30.341Z,2.20
2019-05-23T09:52:01.421Z,2.00
2019-05-23T09:54:31.534Z,2.43
2019-05-23T09:57:01.350Z,2.60
2019-05-23T09:59:31.648Z,3.10
2019-05-23T10:02:03.128Z,2.80
2019-05-23T10:04:33.038Z,2.97
2019-05-23T10:07:02.773Z,3.23
2019-05-23T10:09:32.537Z,3.10
2019-05-23T10:12:02.459Z,2.80
2019-05-23T10:14:33.772Z,3.10
2019-05-23T10:17:03.610Z,3.33
2019-05-23T10:19:33.409Z,3.70
2019-05-23T10:22:05.484Z,3.50
2019-05-23T10:24:35.217Z,4.30
2019-05-23T10:27:06.776Z,3.70
2019-05-23T10:29:36.453Z,3.77
2019-05-23T10:32:07.861Z,4.10
2019-05-23T10:34:37.554Z,4.20
2019-05-23T10:37:08.961Z,4.00
2019-05-23T10:39:38.802Z,4.00
2019-05-23T10:42:08.632Z,4.30
2019-05-23T10:44:38.324Z,4.60
2019-05-23T10:47:09.482Z,4.20
2019-05-23T10:49:39.361Z,4.60
2019-05-23T10:52:09.117Z,4.80
2019-05-23T10:54:38.942Z,4.30
2019-05-23T10:57:08.694Z,4.63
2019-05-23T10:59:38.528Z,4.77
2019-05-23T11:02:08.644Z,4.53
2019-05-23T11:04:38.413Z,3.83
2019-05-23T11:07:08.420Z,4.70
2019-05-23T11:09:38.961Z,4.60
2019-05-23T11:12:09.158Z,4.10
2019-05-23T11:14:38.979Z,5.03
2019-05-23T11:17:09.792Z,4.97
2019-05-23T11:19:39.960Z,4.93
2019-05-23T11:22:11.430Z,4.43
2019-05-23T11:24:41.221Z,4.57
2019-05-23T11:27:10.943Z,4.83
2019-05-23T11:29:40.715Z,4.63
2019-05-23T11:32:10.836Z,5.20
2019-05-23T11:34:40.598Z,4.93
2019-05-23T11:37:10.411Z,5.30
2019-05-23T11:39:49.796Z,4.77
2019-05-23T11:42:11.877Z,5.10
2019-05-23T11:44:41.786Z,4.87
2019-05-23T11:47:18.063Z,4.90
2019-05-23T11:49:47.839Z,5.10
2019-05-23T11:52:17.596Z,5.43
2019-05-23T11:54:47.539Z,4.73
2019-05-23T11:57:17.825Z,4.57
2019-05-23T11:59:47.553Z,3.90
2019-05-23T12:02:24.993Z,4.50
2019-05-23T12:04:56.413Z,4.20
2019-05-23T12:07:30.659Z,3.97
2019-05-23T12:10:00.498Z,3.70
2019-05-23T12:12:30.348Z,3.93
2019-05-23T12:15:00.264Z,4.20
2019-05-23T12:17:32.088Z,3.63
2019-05-23T12:20:02.395Z,4.43
2019-05-23T12:22:32.645Z,3.90
2019-05-23T12:25:19.850Z,3.70
2019-05-23T12:27:34.054Z,4.23
2019-05-23T12:30:07.317Z,3.70
2019-05-23T12:32:37.090Z,3.63
2019-05-23T12:35:11.166Z,3.40
2019-05-23T12:37:38.930Z,3.40
2019-05-23T12:40:10.932Z,4.00
2019-05-23T12:42:40.914Z,3.30
2019-05-23T12:45:12.018Z,3.20
2019-05-23T12:47:56.392Z,3.33
2019-05-23T12:50:44.489Z,3.40
2019-05-23T12:53:15.899Z,3.07
2019-05-23T12:55:45.708Z,3.40
2019-05-23T12:58:15.771Z,3.23
2019-05-23T13:00:47.362Z,3.57
2019-05-23T13:03:17.396Z,3.73
2019-05-23T13:05:47.445Z,3.57
2019-05-23T13:08:17.693Z,3.60
2019-05-23T13:10:47.517Z,3.17
2019-05-23T13:13:17.292Z,2.90
2019-05-23T13:15:47.471Z,3.13
2019-05-23T13:18:17.182Z,3.00
2019-05-23T13:20:47.738Z,3.47
2019-05-23T13:23:21.100Z,2.57
2019-05-23T13:25:49.527Z,2.80
2019-05-23T13:28:19.495Z,3.10
2019-05-23T13:30:49.450Z,2.87
2019-05-23T13:33:20.208Z,2.97
2019-05-23T13:35:50.475Z,2.80
2019-05-23T13:38:20.281Z,3.70
2019-05-23T13:40:49.960Z,3.33
2019-05-23T13:43:19.807Z,3.70
2019-05-23T13:45:49.648Z,4.00
2019-05-23T13:48:19.620Z,3.70
2019-05-23T13:50:49.574Z,3.67
2019-05-23T13:53:19.350Z,3.67
2019-05-23T13:55:49.247Z,4.10
2019-05-23T13:58:19.793Z,3.43
2019-05-23T14:00:50.033Z,4.00
2019-05-23T14:03:20.103Z,4.43
2019-05-23T14:05:50.029Z,3.87
2019-05-23T14:08:19.853Z,4.00
2019-05-23T14:10:49.891Z,4.60
2019-05-23T14:13:19.746Z,4.00
2019-05-23T14:15:51.577Z,4.13
2019-05-23T14:18:23.292Z,3.87
2019-05-23T14:20:53.144Z,4.10
2019-05-23T14:23:27.010Z,4.23
2019-05-23T14:25:57.984Z,5.47
2019-05-23T14:28:28.324Z,4.43
2019-05-23T14:31:06.550Z,4.63
2019-05-23T14:33:44.122Z,4.97
2019-05-23T14:36:15.550Z,4.90
2019-05-23T14:38:46.182Z,4.90
2019-05-23T14:41:16.263Z,4.17
2019-05-23T14:43:47.598Z,4.40
2019-05-23T14:46:19.028Z,5.30
2019-05-23T14:48:58.906Z,5.00
2019-05-23T14:51:48.522Z,5.40
2019-05-23T14:54:26.195Z,5.33
2019-05-23T14:56:55.981Z,5.43
2019-05-23T14:59:25.741Z,5.57
2019-05-23T15:01:56.101Z,5.70
2019-05-23T15:04:25.774Z,5.53
2019-05-23T15:06:55.625Z,5.07
2019-05-23T15:09:25.397Z,5.40
2019-05-23T15:11:55.156Z,5.03
2019-05-23T15:14:24.894Z,5.40
2019-05-23T15:16:54.633Z,5.60
2019-05-23T15:19:39.845Z,6.27
2019-05-23T15:21:55.857Z,6.27
2019-05-23T15:24:25.804Z,6.23
2019-05-23T15:26:55.579Z,6.60
2019-05-23T15:29:29.012Z,6.23
2019-05-23T15:32:02.322Z,5.83
2019-05-23T15:34:28.451Z,5.97
2019-05-23T15:36:58.128Z,7.23
2019-05-23T15:39:28.148Z,6.93
2019-05-23T15:41:57.893Z,6.40
2019-05-23T15:44:29.675Z,6.87
2019-05-23T15:46:59.160Z,6.30
2019-05-23T15:49:29.390Z,7.07
2019-05-23T15:52:03.532Z,6.67
2019-05-23T15:54:37.859Z,7.13
2019-05-23T15:57:09.409Z,7.13
2019-05-23T15:59:40.744Z,6.73
2019-05-23T16:02:15.171Z,6.50
2019-05-23T16:04:44.977Z,7.87
2019-05-23T16:07:14.862Z,6.83
2019-05-23T16:09:44.695Z,6.90
2019-05-23T16:12:14.546Z,7.57
2019-05-23T16:14:45.155Z,6.93
2019-05-23T16:17:15.063Z,7.27
2019-05-23T16:19:44.943Z,6.60
2019-05-23T16:22:14.790Z,6.97
2019-05-23T16:24:44.764Z,6.00
2019-05-23T16:27:14.419Z,5.30
2019-05-23T16:29:44.554Z,6.40
2019-05-23T16:32:14.265Z,6.20
2019-05-23T16:34:43.943Z,5.60
2019-05-23T16:37:13.715Z,5.10
2019-05-23T16:39:48.262Z,5.57
2019-05-23T16:42:15.079Z,5.13
2019-05-23T16:44:44.902Z,5.73
2019-05-23T16:47:14.764Z,4.90
2019-05-23T16:49:44.524Z,4.90
2019-05-23T16:52:14.360Z,4.43
2019-05-23T16:54:45.924Z,4.10
2019-05-23T16:57:17.472Z,4.50
2019-05-23T16:59:48.950Z,3.60
2019-05-23T17:02:36.780Z,3.60
2019-05-23T17:05:16.450Z,3.30
2019-05-23T17:07:58.561Z,3.00
2019-05-23T17:10:39.488Z,2.97
2019-05-23T17:13:12.638Z,3.20
2019-05-23T17:15:53.649Z,3.10
2019-05-23T17:18:25.126Z,3.40
2019-05-23T17:20:59.243Z,3.00
2019-05-23T17:23:47.017Z,3.53
2019-05-23T17:26:33.509Z,3.33
2019-05-23T17:29:11.470Z,3.20
2019-05-23T17:31:42.817Z,3.60
2019-05-23T17:34:12.607Z,3.33
2019-05-23T17:36:42.381Z,3.90
2019-05-23T17:39:13.000Z,3.87
2019-05-23T17:41:43.090Z,3.30
2019-05-23T17:44:12.911Z,3.40
2019-05-23T17:46:45.242Z,3.00
2019-05-23T17:49:15.392Z,3.47
2019-05-23T17:51:45.234Z,3.57
2019-05-23T17:54:15.329Z,3.60
2019-05-23T17:56:45.099Z,3.50
2019-05-23T17:59:14.906Z,3.47
2019-05-23T18:01:45.294Z,3.50
2019-05-23T18:04:15.233Z,3.20
2019-05-23T18:06:45.156Z,3.63
2019-05-23T18:09:15.556Z,3.37
2019-05-23T18:11:45.235Z,3.63
2019-05-23T18:14:15.754Z,3.30
2019-05-23T18:16:46.108Z,3.00
2019-05-23T18:19:16.510Z,3.23
2019-05-23T18:21:46.606Z,3.40
2019-05-23T18:24:16.678Z,3.70
2019-05-23T18:26:46.701Z,3.47
2019-05-23T18:29:16.840Z,3.77
2019-05-23T18:31:46.766Z,3.40
2019-05-23T18:34:16.594Z,3.53
2019-05-23T18:36:46.417Z,3.33
2019-05-23T18:39:17.101Z,3.60
2019-05-23T18:41:46.820Z,3.37
2019-05-23T18:44:17.929Z,3.20
2019-05-23T18:46:49.464Z,3.40
2019-05-23T18:49:19.942Z,3.30
2019-05-23T18:51:50.246Z,2.93
2019-05-23T18:54:19.921Z,3.30
2019-05-23T18:56:49.850Z,3.80
2019-05-23T18:59:20.467Z,4.57
2019-05-23T19:01:50.516Z,4.40
2019-05-23T19:04:20.357Z,4.23
2019-05-23T19:06:51.539Z,4.10
2019-05-23T19:09:21.919Z,5.00
2019-05-23T19:11:51.749Z,4.20
2019-05-23T19:14:21.858Z,4.37
2019-05-23T19:16:52.325Z,4.70
2019-05-23T19:19:22.433Z,4.10
2019-05-23T19:21:52.620Z,4.37
2019-05-23T19:24:22.661Z,4.17
2019-05-23T19:26:53.139Z,4.20
2019-05-23T19:29:23.325Z,4.67
2019-05-23T19:31:53.174Z,4.57
2019-05-23T19:34:23.118Z,4.00
2019-05-23T19:36:53.135Z,4.70
2019-05-23T19:39:25.068Z,4.37
2019-05-23T19:41:54.833Z,5.50
2019-05-23T19:44:24.715Z,4.87
2019-05-23T19:46:59.950Z,4.70
2019-05-23T19:49:32.450Z,4.70
2019-05-23T19:52:02.389Z,5.27
2019-05-23T19:54:32.576Z,5.03
2019-05-23T19:57:02.534Z,5.00
2019-05-23T19:59:32.401Z,5.60
2019-05-23T20:02:06.953Z,5.03
2019-05-23T20:04:38.748Z,5.50
2019-05-23T20:07:09.270Z,5.20
2019-05-23T20:09:39.072Z,6.00
2019-05-23T20:12:19.753Z,6.10
2019-05-23T20:14:50.413Z,6.43
2019-05-23T20:17:20.778Z,6.63
2019-05-23T20:19:50.852Z,5.67
2019-05-23T20:22:20.773Z,5.93
2019-05-23T20:24:50.592Z,5.93
2019-05-23T20:27:20.663Z,6.50
2019-05-23T20:29:50.486Z,7.33
2019-05-23T20:32:20.458Z,7.10
2019-05-23T20:34:50.185Z,7.00
2019-05-23T20:37:20.492Z,7.47
2019-05-23T20:39:50.433Z,6.80
2019-05-23T20:42:20.163Z,7.90
2019-05-23T20:44:50.140Z,10.03
2019-05-23T20:47:20.110Z,9.00
2019-05-23T20:49:50.440Z,9.63
2019-05-23T20:52:20.339Z,8.90
2019-05-23T20:54:50.287Z,8.50
2019-05-23T20:57:20.243Z,9.50
2019-05-23T20:59:49.975Z,8.87
2019-05-23T21:02:19.838Z,8.93
2019-05-23T21:04:49.609Z,9.13
2019-05-23T21:07:19.475Z,8.97
2019-05-23T21:09:49.264Z,10.20
2019-05-23T21:12:29.597Z,9.57
2019-05-23T21:14:52.889Z,10.10
2019-05-23T21:17:23.531Z,9.93
2019-05-23T21:19:53.298Z,10.13
2019-05-23T21:22:23.295Z,10.93
2019-05-23T21:24:53.164Z,10.17
2019-05-23T21:27:23.446Z,10.93
2019-05-23T21:29:53.221Z,10.57
2019-05-23T21:32:22.935Z,10.67
2019-05-23T21:34:52.762Z,10.13
2019-05-23T21:37:22.618Z,10.50
2019-05-23T21:39:52.499Z,11.13
2019-05-23T21:42:22.264Z,11.60
2019-05-23T21:44:52.088Z,10.77
2019-05-23T21:47:22.703Z,11.03
2019-05-23T21:49:52.400Z,11.43
2019-05-23T21:52:22.368Z,11.33
2019-05-23T21:54:52.208Z,11.70
2019-05-23T21:57:21.966Z,11.33
2019-05-23T21:59:51.677Z,11.20
2019-05-23T22:02:25.714Z,10.67
2019-05-23T22:05:03.438Z,11.00
2019-05-23T22:07:33.211Z,11.27
2019-05-23T22:10:03.280Z,10.87
2019-05-23T22:12:32.965Z,11.60
2019-05-23T22:15:03.129Z,12.27
2019-05-23T22:17:33.256Z,11.07
2019-05-23T22:20:03.045Z,10.50
2019-05-23T22:22:32.731Z,10.60
2019-05-23T22:25:02.455Z,10.17
2019-05-23T22:27:32.163Z,10.43
2019-05-23T22:30:02.330Z,11.00
2019-05-23T22:32:32.578Z,9.93
2019-05-23T22:35:04.531Z,10.13
2019-05-23T22:37:34.293Z,9.63
2019-05-23T22:40:04.974Z,10.37
2019-05-23T22:42:35.855Z,10.93
2019-05-23T22:45:08.541Z,10.23
2019-05-23T22:47:38.272Z,11.50
2019-05-23T22:50:08.249Z,12.40
2019-05-23T22:52:37.925Z,10.37
2019-05-23T22:55:07.771Z,11.17
2019-05-23T22:57:37.620Z,12.50
2019-05-23T23:00:07.470Z,11.23
2019-05-23T23:02:37.231Z,12.17
2019-05-23T23:05:07.119Z,11.13
2019-05-23T23:07:36.889Z,11.80
2019-05-23T23:10:06.755Z,12.07
2019-05-23T23:12:36.705Z,10.93
2019-05-23T23:15:08.191Z,11.30
2019-05-23T23:17:37.876Z,11.77
2019-05-23T23:20:08.185Z,11.30
2019-05-23T23:22:37.899Z,10.80
2019-05-23T23:25:07.947Z,10.50
2019-05-23T23:27:37.656Z,10.80
2019-05-23T23:30:09.552Z,10.60
2019-05-23T23:32:39.322Z,10.33
2019-05-23T23:35:09.111Z,10.83
2019-05-23T23:37:38.786Z,10.90
2019-05-23T23:40:09.314Z,11.53
2019-05-23T23:42:39.259Z,12.53
2019-05-23T23:45:27.852Z,13.63
2019-05-23T23:51:01.393Z,12.50
2019-05-23T23:53:49.245Z,13.53
2019-05-23T23:56:36.926Z,13.33
2019-05-23T23:59:14.031Z,13.77
